Time;durP1;ratioP1;P1;durP2;ratioP2;P2;SDS_P1;SDS_P2;PMS_P1;PMS_P2;Temp;Humidity;BMP_temperature;BMP_pressure;BME280_temperature;BME280_humidity;BME280_pressure;Samples;Min_cycle;Max_cycle;Signal;HPM_P1;HPM_P2
2022/06/14 00:03:20;;;;;;;;;10.75;9.50;;;;;;;;5118415;27;8814;-55
2022/06/14 00:06:08;;;;;;;;;13.75;12.00;;;;;;;;5118211;27;8775;-54
2022/06/14 00:09:04;;;;;;;;;14.75;11.25;;;;;;;;5102745;27;8783;-56
2022/06/14 00:11:51;;;;;;;;;9.75;9.75;;;;;;;;5118159;27;8799;-57
2022/06/14 00:14:41;;;;;;;;;10.50;10.50;;;;;;;;5117968;27;8798;-55
2022/06/14 00:17:27;;;;;;;;;11.00;10.75;;;;;;;;5118017;27;8799;-56
2022/06/14 00:20:11;;;;;;;;;14.50;10.25;;;;;;;;5118034;27;8775;-56
2022/06/14 00:22:58;;;;;;;;;15.75;10.25;;;;;;;;5117631;27;8782;-54
2022/06/14 00:25:48;;;;;;;;;11.00;9.25;;;;;;;;5117893;27;8779;-53
2022/06/14 00:28:42;;;;;;;;;10.50;10.00;;;;;;;;5117787;27;8778;-54
2022/06/14 00:31:34;;;;;;;;;16.75;10.00;;;;;;;;5118053;27;8771;-55
2022/06/14 00:34:20;;;;;;;;;13.25;9.50;;;;;;;;5118112;27;8799;-54
2022/06/14 00:37:14;;;;;;;;;9.00;9.00;;;;;;;;5117753;27;8795;-54
2022/06/14 00:40:00;;;;;;;;;13.25;11.25;;;;;;;;5117776;27;8786;-56
2022/06/14 00:43:12;;;;;;;;;15.50;13.00;;;;;;;;5117384;27;8786;-54
2022/06/14 00:46:19;;;;;;;;;14.00;10.00;;;;;;;;5117476;27;8778;-55
2022/06/14 00:49:11;;;;;;;;;12.25;10.25;;;;;;;;5117197;27;8794;-56
2022/06/14 00:52:16;;;;;;;;;13.75;10.50;;;;;;;;5117016;27;8791;-54
2022/06/14 00:55:04;;;;;;;;;15.25;11.25;;;;;;;;5117299;27;8928;-56
2022/06/14 01:01:22;;;;;;;;;12.75;11.00;;;;;;;;5117295;27;8806;-58
2022/06/14 01:04:13;;;;;;;;;12.75;9.50;;;;;;;;5117301;27;8780;-55
2022/06/14 01:07:18;;;;;;;;;10.00;9.25;;;;;;;;5117291;27;8797;-55
2022/06/14 01:10:08;;;;;;;;;11.00;11.00;;;;;;;;5116760;28;8781;-54
2022/06/14 01:12:55;;;;;;;;;11.50;7.00;;;;;;;;5117028;28;8777;-55
2022/06/14 01:15:44;;;;;;;;;12.50;10.75;;;;;;;;5117314;28;8907;-55
2022/06/14 01:18:38;;;;;;;;;10.75;8.50;;;;;;;;5117253;28;9572;-54
2022/06/14 01:21:24;;;;;;;;;10.50;9.50;;;;;;;;5117350;28;8796;-57
2022/06/14 01:24:08;;;;;;;;;10.50;9.75;;;;;;;;5117113;28;8773;-56
2022/06/14 01:26:59;;;;;;;;;15.00;10.25;;;;;;;;5117056;28;8789;-53
2022/06/14 01:29:46;;;;;;;;;11.00;8.25;;;;;;;;5117283;28;8792;-56
2022/06/14 01:32:32;;;;;;;;;12.25;11.25;;;;;;;;5117212;28;8788;-53
2022/06/14 01:35:20;;;;;;;;;13.00;12.00;;;;;;;;5116994;28;8769;-54
2022/06/14 01:38:06;;;;;;;;;15.50;12.75;;;;;;;;5116898;28;8876;-54
2022/06/14 01:41:19;;;;;;;;;13.00;10.25;;;;;;;;5117062;28;8769;-56
2022/06/14 01:44:23;;;;;;;;;11.00;9.75;;;;;;;;5117033;28;8777;-55
2022/06/14 01:47:10;;;;;;;;;13.75;9.25;;;;;;;;5117040;28;8789;-55
2022/06/14 01:53:30;;;;;;;;;13.00;12.00;;;;;;;;5116929;28;8895;-53
2022/06/14 01:56:33;;;;;;;;;9.25;8.75;;;;;;;;5116807;28;8812;-53
2022/06/14 01:59:22;;;;;;;;;16.75;12.75;;;;;;;;5119418;27;8792;-55
2022/06/14 02:02:34;;;;;;;;;12.75;11.25;;;;;;;;5118562;27;8917;-54
2022/06/14 02:05:25;;;;;;;;;11.00;11.00;;;;;;;;5038498;27;8752;-57
2022/06/14 02:08:15;;;;;;;;;15.25;11.25;;;;;;;;5120593;27;8806;-57
2022/06/14 02:11:13;;;;;;;;;14.25;11.50;;;;;;;;5120562;27;8775;-54
2022/06/14 02:14:00;;;;;;;;;10.25;10.00;;;;;;;;5126588;27;8883;-57
2022/06/14 02:17:01;;;;;;;;;11.25;10.00;;;;;;;;5104658;27;8806;-56
2022/06/14 02:19:54;;;;;;;;;12.00;10.50;;;;;;;;5120237;27;8786;-55
2022/06/14 02:22:42;;;;;;;;;15.50;12.50;;;;;;;;5125593;27;8791;-56
2022/06/14 02:25:44;;;;;;;;;13.50;11.75;;;;;;;;5124234;27;8785;-56
2022/06/14 02:28:35;;;;;;;;;9.50;9.25;;;;;;;;5120223;27;8779;-55
2022/06/14 02:31:33;;;;;;;;;13.25;10.75;;;;;;;;5120332;27;8778;-53
2022/06/14 02:34:40;;;;;;;;;14.75;12.50;;;;;;;;5115247;27;8932;-55
2022/06/14 02:37:36;;;;;;;;;12.00;10.50;;;;;;;;5119943;27;8816;-57
2022/06/14 02:40:37;;;;;;;;;15.75;11.75;;;;;;;;5120228;27;8792;-52
2022/06/14 02:43:40;;;;;;;;;12.25;11.00;;;;;;;;5120155;27;8813;-56
2022/06/14 02:46:48;;;;;;;;;18.00;14.00;;;;;;;;5120438;27;8793;-55
2022/06/14 02:49:53;;;;;;;;;11.50;11.25;;;;;;;;5119732;27;8800;-53
2022/06/14 02:52:43;;;;;;;;;19.00;14.25;;;;;;;;5119721;27;8797;-56
2022/06/14 02:55:36;;;;;;;;;14.25;13.25;;;;;;;;5118827;27;8769;-54
2022/06/14 02:58:50;;;;;;;;;17.25;11.75;;;;;;;;5119585;27;8792;-56
2022/06/14 03:01:45;;;;;;;;;14.25;11.75;;;;;;;;5138490;27;8785;-57
2022/06/14 03:04:34;;;;;;;;;14.00;10.75;;;;;;;;5140526;27;8773;-52
2022/06/14 03:07:26;;;;;;;;;12.00;11.00;;;;;;;;5140313;27;8777;-52
2022/06/14 03:10:17;;;;;;;;;11.75;8.75;;;;;;;;5139668;27;8765;-57
2022/06/14 03:13:19;;;;;;;;;13.75;11.75;;;;;;;;5123134;27;9629;-57
2022/06/14 03:16:12;;;;;;;;;12.00;9.25;;;;;;;;5139760;27;8789;-54
2022/06/14 03:19:19;;;;;;;;;12.25;11.00;;;;;;;;5139949;27;8773;-54
2022/06/14 03:22:12;;;;;;;;;14.50;13.00;;;;;;;;5139233;27;8805;-54
2022/06/14 03:25:01;;;;;;;;;14.50;10.50;;;;;;;;5139748;27;8769;-54
2022/06/14 03:28:01;;;;;;;;;15.75;12.00;;;;;;;;5139575;27;8784;-55
2022/06/14 03:30:54;;;;;;;;;12.75;11.50;;;;;;;;5139947;27;8769;-56
2022/06/14 03:33:38;;;;;;;;;8.75;6.25;;;;;;;;5124309;27;8784;-55
2022/06/14 03:36:22;;;;;;;;;12.75;10.25;;;;;;;;5139553;27;8800;-52
2022/06/14 03:39:20;;;;;;;;;16.00;13.00;;;;;;;;5139177;27;8777;-58
2022/06/14 03:42:07;;;;;;;;;15.25;12.75;;;;;;;;5139294;27;8765;-56
2022/06/14 03:44:54;;;;;;;;;13.50;11.75;;;;;;;;5139445;27;8760;-55
2022/06/14 03:47:59;;;;;;;;;16.00;13.75;;;;;;;;5139293;27;9537;-54
2022/06/14 03:51:03;;;;;;;;;12.50;11.00;;;;;;;;5139359;27;8769;-55
2022/06/14 03:54:13;;;;;;;;;21.25;14.00;;;;;;;;5139131;27;8823;-53
2022/06/14 03:57:19;;;;;;;;;13.75;11.50;;;;;;;;5139180;27;8792;-56
2022/06/14 04:00:12;;;;;;;;;20.25;12.50;;;;;;;;5139042;27;8789;-55
2022/06/14 04:03:02;;;;;;;;;13.00;11.75;;;;;;;;5138760;27;10040;-53
2022/06/14 04:06:01;;;;;;;;;14.00;12.00;;;;;;;;5139076;27;8796;-56
2022/06/14 04:08:47;;;;;;;;;13.50;12.25;;;;;;;;5139067;27;8776;-55
2022/06/14 04:11:58;;;;;;;;;14.00;11.50;;;;;;;;5138728;27;8772;-54
2022/06/14 04:15:07;;;;;;;;;16.25;12.25;;;;;;;;5138499;27;8769;-57
2022/06/14 04:17:57;;;;;;;;;17.00;13.25;;;;;;;;5138497;27;8784;-55
2022/06/14 04:20:45;;;;;;;;;16.50;12.00;;;;;;;;5138187;27;8773;-54
2022/06/14 04:23:53;;;;;;;;;18.50;14.25;;;;;;;;5138613;27;8788;-56
2022/06/14 04:26:52;;;;;;;;;13.75;12.25;;;;;;;;5095395;27;8768;-55
2022/06/14 04:29:49;;;;;;;;;13.75;13.75;;;;;;;;5138405;27;8773;-54
2022/06/14 04:32:40;;;;;;;;;15.00;12.50;;;;;;;;5132607;27;8798;-56
2022/06/14 04:35:53;;;;;;;;;13.50;13.50;;;;;;;;5136919;27;8778;-55
2022/06/14 04:38:42;;;;;;;;;13.75;13.25;;;;;;;;5128676;27;8790;-56
2022/06/14 04:41:31;;;;;;;;;16.25;13.25;;;;;;;;5137790;27;8777;-55
2022/06/14 04:44:34;;;;;;;;;19.50;13.50;;;;;;;;5137891;27;8777;-55
2022/06/14 04:47:28;;;;;;;;;21.50;14.75;;;;;;;;5137845;27;9564;-54
2022/06/14 04:50:15;;;;;;;;;17.50;17.50;;;;;;;;5138052;27;8781;-55
2022/06/14 04:53:21;;;;;;;;;19.25;13.75;;;;;;;;5138164;27;8793;-53
2022/06/14 04:56:12;;;;;;;;;16.00;14.00;;;;;;;;5138121;27;8914;-55
2022/06/14 04:59:03;;;;;;;;;15.00;14.00;;;;;;;;5138305;27;9711;-57
2022/06/14 05:02:09;;;;;;;;;16.50;14.25;;;;;;;;5137643;27;8769;-54
2022/06/14 05:04:56;;;;;;;;;14.75;14.25;;;;;;;;5138154;27;8784;-55
2022/06/14 05:07:45;;;;;;;;;14.25;13.00;;;;;;;;5137631;27;8776;-55
2022/06/14 05:10:44;;;;;;;;;20.00;16.50;;;;;;;;5137889;27;8768;-56
2022/06/14 05:13:48;;;;;;;;;18.00;14.25;;;;;;;;5137716;27;8780;-56
2022/06/14 05:16:40;;;;;;;;;19.50;17.25;;;;;;;;5137855;27;8812;-55
2022/06/14 05:19:48;;;;;;;;;15.50;15.50;;;;;;;;5137743;27;8899;-57
2022/06/14 05:22:52;;;;;;;;;16.50;16.50;;;;;;;;5137775;27;8777;-54
2022/06/14 05:25:51;;;;;;;;;25.25;21.25;;;;;;;;5135927;27;8804;-55
2022/06/14 05:28:39;;;;;;;;;25.25;19.25;;;;;;;;5131221;27;8776;-56
2022/06/14 05:31:49;;;;;;;;;23.75;17.25;;;;;;;;5137729;27;8800;-55
2022/06/14 05:34:38;;;;;;;;;25.25;20.25;;;;;;;;5137735;27;8780;-54
2022/06/14 05:37:41;;;;;;;;;20.50;19.50;;;;;;;;5140254;27;9520;-54
2022/06/14 05:40:32;;;;;;;;;22.75;20.50;;;;;;;;5141936;27;8784;-54
2022/06/14 05:43:48;;;;;;;;;27.00;19.50;;;;;;;;5142100;27;9571;-54
2022/06/14 05:46:43;;;;;;;;;25.00;21.75;;;;;;;;5141668;27;9586;-55
2022/06/14 05:49:35;;;;;;;;;28.25;24.00;;;;;;;;5141437;27;8793;-57
2022/06/14 05:52:25;;;;;;;;;26.75;25.00;;;;;;;;5141621;27;8927;-54
2022/06/14 05:55:12;;;;;;;;;25.00;22.00;;;;;;;;5141610;27;8773;-53
2022/06/14 05:58:17;;;;;;;;;20.75;19.75;;;;;;;;5134021;27;9532;-56
2022/06/14 06:01:08;;;;;;;;;24.50;22.75;;;;;;;;5125654;27;8777;-56
2022/06/14 06:04:01;;;;;;;;;27.25;24.75;;;;;;;;5100163;28;8780;-55
2022/06/14 06:06:49;;;;;;;;;26.00;24.25;;;;;;;;5100381;28;8803;-53
2022/06/14 06:09:57;;;;;;;;;37.50;30.00;;;;;;;;5100322;28;8795;-54
2022/06/14 06:12:44;;;;;;;;;37.50;29.25;;;;;;;;5100293;28;9558;-56
2022/06/14 06:15:33;;;;;;;;;29.25;25.00;;;;;;;;5100077;28;8772;-56
2022/06/14 06:18:24;;;;;;;;;29.50;28.50;;;;;;;;5099317;28;8815;-56
2022/06/14 06:21:08;;;;;;;;;31.00;25.50;;;;;;;;5099865;28;8787;-55
2022/06/14 06:24:10;;;;;;;;;29.25;25.25;;;;;;;;5100198;28;8783;-53
2022/06/14 06:27:24;;;;;;;;;35.25;29.00;;;;;;;;5099688;28;8791;-54
2022/06/14 06:30:14;;;;;;;;;32.00;28.50;;;;;;;;5094417;28;8783;-57
2022/06/14 06:33:01;;;;;;;;;31.25;27.50;;;;;;;;5099491;28;8790;-57
2022/06/14 06:35:59;;;;;;;;;38.25;32.00;;;;;;;;5099646;28;8775;-55
2022/06/14 06:38:44;;;;;;;;;31.50;27.25;;;;;;;;5099470;28;8807;-54
2022/06/14 06:44:40;;;;;;;;;34.50;30.75;;;;;;;;5099479;28;8803;-55
2022/06/14 06:47:28;;;;;;;;;44.75;37.75;;;;;;;;5097725;28;8795;-55
2022/06/14 06:50:23;;;;;;;;;52.25;39.50;;;;;;;;5099203;28;8783;-55
2022/06/14 06:53:12;;;;;;;;;48.00;39.50;;;;;;;;5099485;28;8803;-54
2022/06/14 06:56:12;;;;;;;;;51.25;41.00;;;;;;;;5098907;28;8783;-55
2022/06/14 06:58:57;;;;;;;;;49.75;38.00;;;;;;;;5099282;28;8929;-54
2022/06/14 07:01:42;;;;;;;;;41.00;33.50;;;;;;;;5103491;27;8807;-55
2022/06/14 07:07:37;;;;;;;;;35.25;28.25;;;;;;;;5139804;27;8768;-54
2022/06/14 07:10:38;;;;;;;;;31.25;26.50;;;;;;;;5135366;27;8777;-55
2022/06/14 07:13:42;;;;;;;;;32.00;26.00;;;;;;;;5139635;27;9556;-56
2022/06/14 07:16:29;;;;;;;;;27.75;25.00;;;;;;;;5140150;27;8800;-52
2022/06/14 07:19:13;;;;;;;;;32.75;24.25;;;;;;;;5138424;27;8789;-55
2022/06/14 07:22:03;;;;;;;;;25.00;23.25;;;;;;;;5122487;27;8792;-54
2022/06/14 07:25:12;;;;;;;;;31.25;26.50;;;;;;;;5124487;27;8772;-55
2022/06/14 07:28:10;;;;;;;;;24.25;21.25;;;;;;;;5139769;27;8831;-54
2022/06/14 07:30:59;;;;;;;;;19.75;16.50;;;;;;;;5139530;27;9552;-56
2022/06/14 07:33:48;;;;;;;;;22.25;17.25;;;;;;;;5139400;27;8765;-55
2022/06/14 07:36:35;;;;;;;;;20.25;17.00;;;;;;;;5139589;27;8780;-55
2022/06/14 07:39:26;;;;;;;;;17.50;17.50;;;;;;;;5139075;27;8784;-56
2022/06/14 07:42:34;;;;;;;;;17.25;14.75;;;;;;;;5139390;27;8768;-55
2022/06/14 07:45:40;;;;;;;;;19.75;14.25;;;;;;;;5139017;27;8880;-54
2022/06/14 07:48:39;;;;;;;;;14.25;13.00;;;;;;;;5139098;27;8776;-54
2022/06/14 07:51:35;;;;;;;;;18.50;15.25;;;;;;;;5131887;27;8792;-55
2022/06/14 07:54:31;;;;;;;;;17.00;14.75;;;;;;;;5134278;27;8784;-55
2022/06/14 07:57:26;;;;;;;;;17.00;15.25;;;;;;;;5138628;27;8796;-56
2022/06/14 08:03:59;;;;;;;;;18.00;16.25;;;;;;;;5138277;27;8804;-56
2022/06/14 08:07:03;;;;;;;;;14.75;12.75;;;;;;;;5123450;27;8785;-55
2022/06/14 08:09:48;;;;;;;;;15.50;15.50;;;;;;;;5138593;27;9535;-56
2022/06/14 08:12:35;;;;;;;;;17.00;14.00;;;;;;;;5138698;27;8788;-56
2022/06/14 08:15:47;;;;;;;;;17.25;16.50;;;;;;;;5138364;27;8785;-54
2022/06/14 08:18:31;;;;;;;;;15.00;14.50;;;;;;;;5138322;27;8813;-55
2022/06/14 08:21:27;;;;;;;;;15.00;12.50;;;;;;;;5138508;27;9374;-56
2022/06/14 08:24:15;;;;;;;;;18.25;15.00;;;;;;;;5137940;27;8792;-55
2022/06/14 08:27:03;;;;;;;;;20.75;16.50;;;;;;;;5138338;27;8800;-54
2022/06/14 08:30:16;;;;;;;;;25.00;17.00;;;;;;;;5138378;27;8812;-56
2022/06/14 08:33:12;;;;;;;;;22.25;19.50;;;;;;;;5138008;27;8789;-55
2022/06/14 08:36:14;;;;;;;;;18.25;12.25;;;;;;;;5137997;27;8792;-55
2022/06/14 08:39:30;;;;;;;;;17.50;15.75;;;;;;;;5138060;27;8788;-56
2022/06/14 08:42:42;;;;;;;;;20.75;16.50;;;;;;;;5137907;27;8769;-57
2022/06/14 08:45:32;;;;;;;;;17.00;17.00;;;;;;;;5137963;27;8781;-55
2022/06/14 08:48:29;;;;;;;;;17.75;16.00;;;;;;;;5137779;27;9624;-56
2022/06/14 08:55:27;;;;;;;;;15.25;14.00;;;;;;;;5116462;27;9429;-55
2022/06/14 08:58:46;;;;;;;;;16.75;15.25;;;;;;;;5117040;27;8830;-56
2022/06/14 09:01:49;;;;;;;;;19.00;17.75;;;;;;;;5117176;27;8798;-54
2022/06/14 09:04:45;;;;;;;;;21.50;17.50;;;;;;;;5116926;27;8791;-55
2022/06/14 09:07:32;;;;;;;;;18.50;18.00;;;;;;;;5116937;27;8806;-56
2022/06/14 09:10:29;;;;;;;;;21.25;17.25;;;;;;;;5116972;27;8783;-57
2022/06/14 09:13:13;;;;;;;;;21.50;16.75;;;;;;;;5116503;27;8774;-54
2022/06/14 09:16:20;;;;;;;;;18.00;15.25;;;;;;;;5116412;28;8770;-54
2022/06/14 09:19:25;;;;;;;;;16.75;13.50;;;;;;;;5116665;28;8783;-54
2022/06/14 09:22:22;;;;;;;;;20.50;15.00;;;;;;;;5116488;28;8771;-56
2022/06/14 09:25:25;;;;;;;;;18.00;15.50;;;;;;;;5116535;28;8814;-54
2022/06/14 09:28:29;;;;;;;;;24.50;21.25;;;;;;;;5116837;28;8799;-56
2022/06/14 09:31:36;;;;;;;;;17.25;17.00;;;;;;;;5116960;28;8802;-54
2022/06/14 09:34:33;;;;;;;;;18.50;16.50;;;;;;;;5033156;28;8807;-57
2022/06/14 09:37:35;;;;;;;;;19.25;17.00;;;;;;;;5033519;28;8807;-55
2022/06/14 09:40:31;;;;;;;;;18.75;15.50;;;;;;;;5110247;28;8917;-55
2022/06/14 09:43:37;;;;;;;;;19.25;14.00;;;;;;;;5116579;28;8779;-55
2022/06/14 09:46:33;;;;;;;;;19.25;16.25;;;;;;;;5116048;28;8779;-56
2022/06/14 09:49:37;;;;;;;;;19.25;18.50;;;;;;;;5116353;28;8791;-54
2022/06/14 09:52:40;;;;;;;;;16.75;13.75;;;;;;;;5116739;28;8786;-57
2022/06/14 09:55:43;;;;;;;;;15.25;14.25;;;;;;;;5116528;28;8791;-56
2022/06/14 09:58:30;;;;;;;;;14.75;14.75;;;;;;;;5116877;28;8794;-55
2022/06/14 10:01:19;;;;;;;;;17.25;15.50;;;;;;;;5116466;28;8799;-55
2022/06/14 10:04:15;;;;;;;;;17.50;15.75;;;;;;;;5116353;28;8815;-56
2022/06/14 10:07:16;;;;;;;;;17.75;16.00;;;;;;;;5116628;28;8802;-54
2022/06/14 10:10:14;;;;;;;;;21.00;18.50;;;;;;;;5116754;28;8799;-55
2022/06/14 10:12:58;;;;;;;;;19.00;16.75;;;;;;;;5116269;28;8787;-55
2022/06/14 10:16:01;;;;;;;;;23.75;18.75;;;;;;;;5114581;28;8787;-55
2022/06/14 10:18:56;;;;;;;;;24.25;18.75;;;;;;;;5116023;28;8818;-56
2022/06/14 10:22:01;;;;;;;;;22.50;19.75;;;;;;;;5116218;28;8779;-55
2022/06/14 10:25:20;;;;;;;;;19.50;18.00;;;;;;;;5119747;27;8786;-53
2022/06/14 10:28:30;;;;;;;;;26.00;21.00;;;;;;;;5118624;27;8791;-55
2022/06/14 10:31:44;;;;;;;;;22.25;19.75;;;;;;;;5119926;27;8794;-55
2022/06/14 10:35:01;;;;;;;;;28.50;24.00;;;;;;;;5039629;27;9562;-55
2022/06/14 10:38:16;;;;;;;;;27.00;23.25;;;;;;;;5116752;27;8917;-54
2022/06/14 10:41:20;;;;;;;;;31.50;26.00;;;;;;;;5117868;27;9568;-57
2022/06/14 10:44:17;;;;;;;;;25.00;21.25;;;;;;;;5119638;27;8791;-56
2022/06/14 10:47:08;;;;;;;;;23.50;20.75;;;;;;;;5119338;27;8807;-55
2022/06/14 10:53:16;;;;;;;;;22.50;19.75;;;;;;;;5119599;27;8798;-52
2022/06/14 10:56:13;;;;;;;;;21.25;16.50;;;;;;;;5119150;27;8814;-57
2022/06/14 10:59:15;;;;;;;;;24.25;21.00;;;;;;;;5119624;27;9674;-55
2022/06/14 11:02:27;;;;;;;;;24.00;19.25;;;;;;;;5119420;27;8795;-55
2022/06/14 11:05:31;;;;;;;;;24.00;19.00;;;;;;;;5119316;27;8794;-55
2022/06/14 11:08:39;;;;;;;;;25.50;21.00;;;;;;;;5119079;27;8846;-57
2022/06/14 11:11:59;;;;;;;;;25.50;23.00;;;;;;;;5118199;27;8795;-55
2022/06/14 11:15:04;;;;;;;;;25.75;23.50;;;;;;;;5118925;27;8794;-55
2022/06/14 11:17:57;;;;;;;;;29.50;25.00;;;;;;;;5118017;27;8807;-54
2022/06/14 11:20:48;;;;;;;;;29.75;26.00;;;;;;;;5102793;27;8795;-55
2022/06/14 11:23:42;;;;;;;;;28.25;22.25;;;;;;;;5119138;27;8779;-56
2022/06/14 11:26:45;;;;;;;;;24.75;22.75;;;;;;;;5118713;27;8782;-56
2022/06/14 11:29:59;;;;;;;;;31.00;24.50;;;;;;;;5118837;27;9529;-54
2022/06/14 11:33:22;;;;;;;;;33.75;26.75;;;;;;;;5118832;27;8783;-55
2022/06/14 11:36:27;;;;;;;;;29.50;26.50;;;;;;;;5117899;27;8787;-56
2022/06/14 11:39:17;;;;;;;;;32.50;27.75;;;;;;;;5118659;27;8912;-56
2022/06/14 11:42:06;;;;;;;;;24.25;19.75;;;;;;;;5118327;27;8779;-57
2022/06/14 11:45:32;;;;;;;;;27.00;25.25;;;;;;;;5116363;27;8775;-56
2022/06/14 11:48:20;;;;;;;;;22.75;21.75;;;;;;;;5043534;27;8775;-56
2022/06/14 11:51:25;;;;;;;;;23.00;20.50;;;;;;;;5115053;27;8802;-56
2022/06/14 11:54:27;;;;;;;;;25.50;22.50;;;;;;;;5118092;27;9523;-55
2022/06/14 11:57:21;;;;;;;;;25.50;24.00;;;;;;;;5117476;27;8791;-57
2022/06/14 12:00:12;;;;;;;;;24.25;21.00;;;;;;;;5117807;27;8771;-57
2022/06/14 12:03:19;;;;;;;;;24.25;16.75;;;;;;;;5117970;27;8767;-56
2022/06/14 12:06:41;;;;;;;;;28.25;25.50;;;;;;;;5117708;27;8783;-57
2022/06/14 12:09:37;;;;;;;;;26.25;23.50;;;;;;;;5117709;27;8779;-56
2022/06/14 12:12:51;;;;;;;;;22.50;22.00;;;;;;;;5117314;27;8783;-58
2022/06/14 12:15:41;;;;;;;;;31.75;25.75;;;;;;;;5038560;27;8800;-57
2022/06/14 12:18:28;;;;;;;;;26.50;23.00;;;;;;;;5109003;27;8791;-56
2022/06/14 12:21:13;;;;;;;;;30.25;26.25;;;;;;;;5116655;27;8830;-56
2022/06/14 12:24:02;;;;;;;;;33.50;28.50;;;;;;;;5113856;27;8770;-54
2022/06/14 12:26:55;;;;;;;;;32.25;23.25;;;;;;;;5117268;27;8795;-53
2022/06/14 12:29:48;;;;;;;;;27.00;26.25;;;;;;;;5117033;27;8747;-55
2022/06/14 12:32:40;;;;;;;;;33.50;24.00;;;;;;;;5117772;27;8767;-55
2022/06/14 12:35:34;;;;;;;;;26.50;23.50;;;;;;;;5117643;27;8791;-56
2022/06/14 12:38:22;;;;;;;;;25.75;23.00;;;;;;;;5116825;27;8806;-54
2022/06/14 12:41:20;;;;;;;;;30.50;25.50;;;;;;;;5117597;27;8778;-54
2022/06/14 12:44:30;;;;;;;;;27.75;26.25;;;;;;;;5113346;27;8795;-54
2022/06/14 12:47:23;;;;;;;;;23.00;17.00;;;;;;;;5101583;27;8787;-52
2022/06/14 12:50:16;;;;;;;;;30.50;27.25;;;;;;;;5117772;27;8771;-53
2022/06/14 12:53:14;;;;;;;;;28.50;24.50;;;;;;;;5101309;27;8771;-53
2022/06/14 12:56:06;;;;;;;;;26.75;24.00;;;;;;;;5116787;27;8759;-55
2022/06/14 12:58:55;;;;;;;;;31.25;29.25;;;;;;;;5117404;27;8791;-55
2022/06/14 13:01:45;;;;;;;;;30.00;27.25;;;;;;;;5116349;27;8802;-55
2022/06/14 13:04:32;;;;;;;;;37.75;29.00;;;;;;;;5116311;27;8928;-55
2022/06/14 13:07:24;;;;;;;;;32.50;28.50;;;;;;;;5116728;27;8794;-55
2022/06/14 13:10:27;;;;;;;;;32.00;24.25;;;;;;;;5112742;27;9570;-58
2022/06/14 13:13:18;;;;;;;;;29.00;24.00;;;;;;;;5116189;27;9566;-57
2022/06/14 13:16:09;;;;;;;;;26.75;21.75;;;;;;;;5110008;28;8779;-53
2022/06/14 13:18:53;;;;;;;;;25.50;22.75;;;;;;;;5115640;28;8794;-52
2022/06/14 13:21:38;;;;;;;;;19.50;19.50;;;;;;;;5114827;28;8763;-52
2022/06/14 13:24:46;;;;;;;;;27.75;22.50;;;;;;;;5115662;28;8794;-52
2022/06/14 13:28:04;;;;;;;;;27.00;24.00;;;;;;;;5100360;28;8791;-53
2022/06/14 13:30:51;;;;;;;;;27.00;24.50;;;;;;;;5060229;28;8792;-52
2022/06/14 13:33:47;;;;;;;;;25.50;24.25;;;;;;;;5070530;28;8793;-53
2022/06/14 13:37:12;;;;;;;;;29.50;26.25;;;;;;;;5067700;28;8822;-54
2022/06/14 13:40:14;;;;;;;;;29.75;23.00;;;;;;;;5031303;28;8799;-53
2022/06/14 13:43:01;;;;;;;;;23.75;20.00;;;;;;;;5032668;28;8791;-53
2022/06/14 13:45:52;;;;;;;;;24.25;20.75;;;;;;;;5033379;28;8819;-53
2022/06/14 13:48:53;;;;;;;;;27.50;22.75;;;;;;;;5052009;28;8817;-55
2022/06/14 13:51:48;;;;;;;;;21.25;21.25;;;;;;;;5052614;28;8794;-56
2022/06/14 13:54:39;;;;;;;;;23.50;22.00;;;;;;;;5052961;28;9565;-53
2022/06/14 13:57:22;;;;;;;;;23.75;20.75;;;;;;;;5082054;27;8787;-54
2022/06/14 14:00:13;;;;;;;;;19.50;19.50;;;;;;;;5120386;27;8795;-54
2022/06/14 14:03:13;;;;;;;;;20.50;19.75;;;;;;;;5120343;27;8771;-54
2022/06/14 14:06:12;;;;;;;;;20.50;15.25;;;;;;;;5120361;27;8795;-56
2022/06/14 14:09:16;;;;;;;;;20.25;20.25;;;;;;;;5117760;27;8788;-53
2022/06/14 14:12:12;;;;;;;;;24.00;21.00;;;;;;;;5120198;27;8795;-54
2022/06/14 14:15:13;;;;;;;;;25.00;20.00;;;;;;;;5119563;27;8791;-51
2022/06/14 14:18:02;;;;;;;;;24.25;22.50;;;;;;;;5120199;27;8807;-52
2022/06/14 14:20:56;;;;;;;;;22.50;20.00;;;;;;;;5120220;27;8782;-55
2022/06/14 14:23:43;;;;;;;;;22.75;22.00;;;;;;;;5101571;27;8782;-53
2022/06/14 14:26:39;;;;;;;;;24.25;21.25;;;;;;;;5120285;27;8783;-53
2022/06/14 14:29:29;;;;;;;;;29.00;22.00;;;;;;;;5119735;27;8779;-53
2022/06/14 14:32:20;;;;;;;;;24.25;22.25;;;;;;;;5119709;27;9538;-54
2022/06/14 14:35:08;;;;;;;;;28.50;23.50;;;;;;;;5119234;27;8826;-52
2022/06/14 14:38:00;;;;;;;;;22.50;20.00;;;;;;;;5119583;27;8826;-51
2022/06/14 14:44:14;;;;;;;;;26.75;21.75;;;;;;;;5119391;27;8787;-55
2022/06/14 14:47:18;;;;;;;;;24.25;18.75;;;;;;;;5119458;27;8795;-52
2022/06/14 14:50:12;;;;;;;;;22.50;20.50;;;;;;;;5119253;27;8936;-51
2022/06/14 14:53:15;;;;;;;;;24.50;21.00;;;;;;;;5103716;27;8790;-52
2022/06/14 14:56:04;;;;;;;;;21.50;19.25;;;;;;;;5119440;27;8795;-52
2022/06/14 14:58:52;;;;;;;;;22.50;19.75;;;;;;;;5118894;27;8815;-54
2022/06/14 15:05:40;;;;;;;;;24.50;22.25;;;;;;;;5118944;27;8814;-56
2022/06/14 15:08:13;;;;;;;;;19.50;19.00;;;;;;;;5118484;27;8799;-54
2022/06/14 15:11:06;;;;;;;;;25.00;21.75;;;;;;;;5118472;27;8806;-55
2022/06/14 15:14:17;;;;;;;;;24.25;21.75;;;;;;;;5118927;27;8775;-52
2022/06/14 15:20:09;;;;;;;;;28.50;21.50;;;;;;;;5118419;27;8775;-57
2022/06/14 15:23:07;;;;;;;;;26.50;23.00;;;;;;;;5117378;27;8770;-56
2022/06/14 15:25:51;;;;;;;;;26.50;19.00;;;;;;;;5118772;27;8827;-52
2022/06/14 15:29:14;;;;;;;;;26.25;22.25;;;;;;;;5102815;27;8806;-45
2022/06/14 15:32:08;;;;;;;;;22.75;19.00;;;;;;;;5015687;28;8814;-51
2022/06/14 15:35:00;;;;;;;;;28.75;23.75;;;;;;;;5015578;28;8818;-55
2022/06/14 15:38:01;;;;;;;;;23.75;21.00;;;;;;;;5112330;27;8848;-53
2022/06/14 15:40:45;;;;;;;;;22.50;18.50;;;;;;;;5118489;27;8735;-55
2022/06/14 15:43:32;;;;;;;;;22.25;18.25;;;;;;;;5118786;27;8763;-55
2022/06/14 15:46:21;;;;;;;;;24.00;21.00;;;;;;;;5118246;27;8779;-54
2022/06/14 15:49:07;;;;;;;;;23.50;20.50;;;;;;;;5118326;27;8778;-52
2022/06/14 15:51:52;;;;;;;;;24.50;21.50;;;;;;;;5102588;27;8917;-53
2022/06/14 15:54:38;;;;;;;;;18.75;17.25;;;;;;;;5118474;27;8818;-46
2022/06/14 15:57:33;;;;;;;;;24.00;19.75;;;;;;;;5118198;27;8822;-49
2022/06/14 16:00:17;;;;;;;;;22.25;18.00;;;;;;;;5118408;27;8779;-52
2022/06/14 16:03:02;;;;;;;;;23.50;19.50;;;;;;;;5118020;27;8806;-53
2022/06/14 16:05:58;;;;;;;;;24.75;21.00;;;;;;;;5118179;27;8775;-51
2022/06/14 16:08:53;;;;;;;;;18.50;16.00;;;;;;;;5116136;27;8787;-52
2022/06/14 16:11:47;;;;;;;;;24.50;18.75;;;;;;;;5102281;27;8799;-57
2022/06/14 16:14:37;;;;;;;;;19.25;17.75;;;;;;;;5118112;27;8767;-57
2022/06/14 16:17:33;;;;;;;;;24.25;21.00;;;;;;;;5117819;27;8743;-57
2022/06/14 16:20:20;;;;;;;;;21.50;18.75;;;;;;;;5117651;27;8790;-55
2022/06/14 16:23:11;;;;;;;;;21.75;19.75;;;;;;;;5116530;27;8779;-56
2022/06/14 16:25:57;;;;;;;;;28.50;22.25;;;;;;;;5102615;27;8783;-54
2022/06/14 16:28:54;;;;;;;;;25.25;23.75;;;;;;;;5116851;27;8775;-56
2022/06/14 16:32:13;;;;;;;;;25.50;22.25;;;;;;;;5117569;27;8798;-54
2022/06/14 16:35:20;;;;;;;;;28.75;27.25;;;;;;;;5057198;28;8774;-51
2022/06/14 16:38:24;;;;;;;;;30.75;27.50;;;;;;;;5101079;27;8798;-51
2022/06/14 16:41:08;;;;;;;;;29.50;23.75;;;;;;;;5085809;27;8787;-52
2022/06/14 16:43:59;;;;;;;;;21.00;16.75;;;;;;;;5117498;27;8775;-50
2022/06/14 16:46:54;;;;;;;;;27.50;25.25;;;;;;;;5102102;27;8766;-53
2022/06/14 16:49:53;;;;;;;;;31.50;24.75;;;;;;;;5117079;27;8787;-52
2022/06/14 16:52:43;;;;;;;;;22.00;18.50;;;;;;;;5116146;27;8783;-53
2022/06/14 16:56:03;;;;;;;;;25.25;19.00;;;;;;;;5115817;27;9539;-54
2022/06/14 16:58:54;;;;;;;;;22.25;18.75;;;;;;;;5033176;28;8807;-50
2022/06/14 17:02:08;;;;;;;;;29.50;18.75;;;;;;;;5087565;27;8791;-52
2022/06/14 17:04:56;;;;;;;;;19.50;15.50;;;;;;;;5074536;27;9562;-54
2022/06/14 17:07:47;;;;;;;;;21.50;19.50;;;;;;;;5117119;27;8806;-54
2022/06/14 17:10:52;;;;;;;;;23.25;19.75;;;;;;;;5117164;27;8783;-48
2022/06/14 17:13:39;;;;;;;;;22.50;19.25;;;;;;;;5117235;27;8807;-58
2022/06/14 17:16:49;;;;;;;;;18.50;17.00;;;;;;;;5117099;27;8778;-51
2022/06/14 17:19:58;;;;;;;;;18.50;18.50;;;;;;;;5116792;28;8814;-57
2022/06/14 17:22:46;;;;;;;;;16.50;16.50;;;;;;;;5101460;28;8770;-51
2022/06/14 17:31:38;;;;;;;;;19.25;17.00;;;;;;;;5116782;27;8759;-56
2022/06/14 17:34:45;;;;;;;;;19.25;18.25;;;;;;;;5121476;27;8774;-54
2022/06/14 17:37:42;;;;;;;;;19.75;18.25;;;;;;;;5121827;27;8790;-57
2022/06/14 17:40:32;;;;;;;;;28.75;23.75;;;;;;;;5105703;27;8897;-57
2022/06/14 17:43:19;;;;;;;;;21.25;18.25;;;;;;;;5121217;27;8790;-56
2022/06/14 17:46:08;;;;;;;;;19.50;17.25;;;;;;;;5120660;27;8763;-56
2022/06/14 17:49:11;;;;;;;;;17.75;16.75;;;;;;;;5117388;27;8767;-55
2022/06/14 17:51:56;;;;;;;;;19.75;17.25;;;;;;;;5118251;27;8779;-55
2022/06/14 17:54:43;;;;;;;;;23.25;17.50;;;;;;;;5120081;27;8767;-54
2022/06/14 17:57:48;;;;;;;;;23.75;18.00;;;;;;;;5119841;27;8795;-56
2022/06/14 18:00:32;;;;;;;;;20.25;17.00;;;;;;;;5089559;27;8790;-58
2022/06/14 18:03:27;;;;;;;;;16.50;16.50;;;;;;;;5120610;27;9589;-56